Arlington, KS

5:15 AM CDT on September 20, 2014 (GMT -0500)
KKSHUTCH9 | Change Station
CLOSE
Current Station
Personal Weather Station
Location: Hutchinson, KS
Elevation: 1549 ft
Nearby Weather Stations
4.0 Earthquake: Medford, Oklahoma (1 day ago)  

Elev 1549 ft 38.08 °N, 97.92 °W | Updated 0 second ago

Clear
Clear
68.7 °F
Feels Like 68.7 °F
N
3.1
Wind Variable Wind from SSE
Gusts 4.5 mph

Today
High -- | Low -- °F
--% Chance of Precip.
Yesterday
High -- | Low -- °F
Precip. -- in
7:18 AM 7:32 PM
Waning Crescent, 13% visible
Pressure 29.89 in
Visibility 7.0 miles
Clouds Clear
Dew Point 68 °F
Humidity 96%
Rainfall 0.00 in
Snow Depth Not available.
UV 0 out of 12
Pollen 7.20 out of 12
Air Quality Not available.
Flu Activity Not available.
METAR KHUT 200952Z AUTO 18006KT 7SM CLR 20/18 A2996 RMK AO2 SLP120 T02000178

More Conditions Fewer Conditions

Pressure 29.89 in
Visibility 7.0 miles
Clouds Clear
Dew Point 68 °F
Humidity 96%
Rainfall 0.00 in
Snow Depth Not available.
UV 0 out of 12
Pollen 7.20 out of 12
Air Quality Not available.
Flu Activity Not available.
METAR KHUT 200952Z AUTO 18006KT 7SM CLR 20/18 A2996 RMK AO2 SLP120 T02000178

More Conditions Fewer Conditions

10-Day Weather Forecast

Almanac

Astronomy

Sep. 20, 2014 Rise Set
Actual Time 7:18 AM CDT 7:32 PM CDT
Civil Twilight 6:52 AM CDT 7:58 PM CDT
Nautical Twilight 6:21 AM CDT 8:29 PM CDT
Astronomical Twilight 5:50 AM CDT 9:00 PM CDT
Moon 4:02 AM CDT 5:34 PM CDT
Length of Visible Light 13h 06m
Length of Day
12h 13m
Tomorrow will be 2m 25s shorter.
Waning Crescent, 13% of the Moon is Illuminated
Today
Waning Crescent
Sep 24
New
Oct 1
First Quarter
Oct 8
Full
Oct 15
Last Quarter

Today's Extremes

State Highs State Lows

Community

WunderPhotos

Upload Photos

1,754,824 photos uploaded!

WunderBlogs® & News

Nearby

Snow Depth

Station Depth Elevation
No new snow has been reported.

Earthquake Activity

City Distance Mag. Time & Date
Medford, Oklahoma 77 miles 3.2 2:10 AM CDT
2014-09-20
Perry, Oklahoma 127 miles 3.3 12:08 AM CDT
2014-09-19
Cherokee, Oklahoma 79 miles 2.8 10:11 PM CDT
2014-09-18
Medford, Oklahoma 95 miles 4.0 8:31 PM CDT
2014-09-18
Minimum magnitude displayed is 2.5.

Coastal Water Temperatures

Place Temperature
No Stations Reporting

Nearby Weather Stations